Time;durP1;ratioP1;P1;durP2;ratioP2;P2;SDS_P1;SDS_P2;PMS_P1;PMS_P2;Temp;Humidity;BMP_temperature;BMP_pressure;BME280_temperature;BME280_humidity;BME280_pressure;Samples;Min_cycle;Max_cycle;Signal;HPM_P1;HPM_P2
2022/05/15 00:00:42;;;;;;;7.68;3.42;;;24.00;46.30;;;;;;7648914;23;20013;-69
2022/05/15 00:03:43;;;;;;;5.45;2.95;;;24.00;46.50;;;;;;7674122;23;20013;-69
2022/05/15 00:06:44;;;;;;;4.45;3.08;;;23.90;46.70;;;;;;7676056;23;20021;-69
2022/05/15 00:09:45;;;;;;;8.93;2.97;;;23.80;46.80;;;;;;7650883;23;20013;-69
2022/05/15 00:12:46;;;;;;;7.45;3.42;;;23.80;46.90;;;;;;7650982;23;20032;-69
2022/05/15 00:15:49;;;;;;;7.32;3.03;;;23.80;47.50;;;;;;7677087;23;20083;-69
2022/05/15 00:18:50;;;;;;;4.60;3.38;;;23.80;46.90;;;;;;7676548;23;20020;-69
2022/05/15 00:21:52;;;;;;;5.38;3.47;;;23.70;46.90;;;;;;7687969;23;20036;-69
2022/05/15 00:24:53;;;;;;;6.28;3.42;;;23.70;47.10;;;;;;7687241;23;20008;-69
2022/05/15 00:27:55;;;;;;;6.63;2.97;;;23.70;47.50;;;;;;7713118;23;20016;-68
2022/05/15 00:30:56;;;;;;;7.78;3.28;;;23.70;47.60;;;;;;7687685;23;20017;-68
2022/05/15 00:33:57;;;;;;;6.38;3.17;;;23.70;47.60;;;;;;7713863;23;20047;-68
2022/05/15 00:36:58;;;;;;;9.68;3.47;;;23.60;47.70;;;;;;7714201;23;20016;-68
2022/05/15 00:39:59;;;;;;;4.95;2.97;;;23.50;47.60;;;;;;7687909;23;20051;-69
2022/05/15 00:43:01;;;;;;;6.40;2.90;;;23.50;47.70;;;;;;7686310;23;20013;-69
2022/05/15 00:46:03;;;;;;;5.22;3.13;;;23.50;47.80;;;;;;7687574;23;20039;-69
2022/05/15 00:49:10;;;;;;;7.72;3.10;;;23.40;47.90;;;;;;7685610;23;20092;-69
2022/05/15 00:52:15;;;;;;;4.43;2.75;;;23.40;48.00;;;;;;7687642;23;20082;-69
2022/05/15 00:55:24;;;;;;;8.88;3.38;;;23.40;48.20;;;;;;7688108;23;20095;-70
2022/05/15 00:58:31;;;;;;;4.85;2.88;;;23.40;48.40;;;;;;7687154;23;20027;-69
2022/05/15 01:01:32;;;;;;;5.50;2.75;;;23.30;48.50;;;;;;7714103;23;20020;-69
2022/05/15 01:04:33;;;;;;;4.85;2.97;;;23.30;48.60;;;;;;7687857;23;20047;-69
2022/05/15 01:07:34;;;;;;;7.72;2.90;;;23.20;48.70;;;;;;7687721;23;20044;-69
2022/05/15 01:10:39;;;;;;;8.95;3.17;;;23.20;48.80;;;;;;7662737;23;20103;-69
2022/05/15 01:13:42;;;;;;;7.28;2.85;;;23.20;48.70;;;;;;7713235;23;20016;-69
2022/05/15 01:16:44;;;;;;;7.78;2.90;;;23.20;48.90;;;;;;7687090;23;20088;-69
2022/05/15 01:19:45;;;;;;;6.40;3.47;;;23.20;49.20;;;;;;7649807;23;20387;-69
2022/05/15 01:22:46;;;;;;;8.68;3.65;;;23.10;49.30;;;;;;7640657;23;20317;-70
2022/05/15 01:25:47;;;;;;;4.55;3.22;;;23.10;49.40;;;;;;7625459;23;20021;-70
2022/05/15 01:28:48;;;;;;;5.70;3.25;;;23.00;49.60;;;;;;7675744;23;20013;-69
2022/05/15 01:31:52;;;;;;;8.35;4.10;;;22.90;49.70;;;;;;7645766;23;20035;-70
2022/05/15 01:34:55;;;;;;;5.50;3.28;;;22.80;49.80;;;;;;7636856;23;20013;-69
2022/05/15 01:37:57;;;;;;;5.75;3.10;;;22.80;50.00;;;;;;7640859;23;20032;-68
2022/05/15 01:40:58;;;;;;;7.38;3.40;;;22.70;50.20;;;;;;7640999;23;20013;-68
2022/05/15 01:43:59;;;;;;;3.90;2.78;;;22.70;50.40;;;;;;7640635;23;20014;-69
2022/05/15 01:47:01;;;;;;;7.40;3.45;;;22.70;50.50;;;;;;7651197;23;20102;-69
2022/05/15 01:50:03;;;;;;;6.20;3.20;;;22.60;50.70;;;;;;7651555;23;20100;-69
2022/05/15 01:53:05;;;;;;;11.80;3.22;;;22.40;50.70;;;;;;7651156;23;20009;-69
2022/05/15 01:56:06;;;;;;;4.38;2.92;;;22.40;50.90;;;;;;7627129;23;20024;-69
2022/05/15 01:59:08;;;;;;;7.38;3.53;;;22.30;51.60;;;;;;7602319;23;20021;-69
2022/05/15 02:02:11;;;;;;;6.47;3.28;;;22.30;51.30;;;;;;7639332;23;20044;-69
2022/05/15 02:05:12;;;;;;;4.30;3.28;;;22.20;51.40;;;;;;7614689;23;20013;-69
2022/05/15 02:08:14;;;;;;;4.70;3.22;;;22.20;51.50;;;;;;7614354;23;20040;-69
2022/05/15 02:11:15;;;;;;;5.88;3.50;;;22.10;51.60;;;;;;7589052;23;20014;-69
2022/05/15 02:14:16;;;;;;;5.88;3.38;;;22.10;51.90;;;;;;7626344;23;20027;-69
2022/05/15 02:17:17;;;;;;;4.30;2.78;;;22.00;52.10;;;;;;7658002;23;20316;-68
2022/05/15 02:20:18;;;;;;;8.15;3.75;;;22.00;52.20;;;;;;7688262;23;20027;-68
2022/05/15 02:23:19;;;;;;;5.10;3.33;;;22.00;52.40;;;;;;7663390;23;20038;-68
2022/05/15 02:26:20;;;;;;;6.05;3.60;;;22.00;52.50;;;;;;7662867;23;20024;-69
2022/05/15 02:29:22;;;;;;;4.78;2.95;;;21.90;52.50;;;;;;7687567;23;20024;-69
2022/05/15 02:32:23;;;;;;;7.60;3.45;;;21.90;52.70;;;;;;7688031;23;20098;-69
2022/05/15 02:35:24;;;;;;;4.28;3.15;;;21.80;52.70;;;;;;7688255;23;20463;-69
2022/05/15 02:38:26;;;;;;;16.67;3.47;;;21.80;52.80;;;;;;7688214;23;20435;-70
2022/05/15 02:41:27;;;;;;;4.85;3.25;;;21.80;53.00;;;;;;7714363;23;20023;-69
2022/05/15 02:44:29;;;;;;;6.68;3.30;;;21.80;53.00;;;;;;7714254;23;20032;-69
2022/05/15 02:47:30;;;;;;;8.13;3.55;;;21.80;53.00;;;;;;7663146;23;20026;-69
2022/05/15 02:53:54;;;;;;;6.05;3.17;;;21.80;53.10;;;;;;7684075;23;20067;-69
2022/05/15 02:56:56;;;;;;;10.00;3.55;;;21.80;53.00;;;;;;7659886;23;20326;-69
2022/05/15 02:59:57;;;;;;;5.60;3.53;;;21.70;53.00;;;;;;7710859;23;20012;-69
2022/05/15 03:02:58;;;;;;;6.43;3.25;;;21.70;53.10;;;;;;7684202;23;20012;-69
2022/05/15 03:05:59;;;;;;;6.80;3.15;;;21.70;53.20;;;;;;7710481;23;20024;-70
2022/05/15 03:09:00;;;;;;;5.47;3.17;;;21.70;53.20;;;;;;7710497;23;20012;-69
2022/05/15 03:12:01;;;;;;;4.95;3.10;;;21.70;53.30;;;;;;7683886;23;20029;-69
2022/05/15 03:15:05;;;;;;;7.05;3.15;;;21.70;53.40;;;;;;7659035;23;20020;-70
2022/05/15 03:18:07;;;;;;;6.30;2.88;;;21.70;53.50;;;;;;7660385;23;20077;-69
2022/05/15 03:21:10;;;;;;;8.93;3.55;;;21.70;53.60;;;;;;7686024;23;20023;-69
2022/05/15 03:24:12;;;;;;;5.53;3.60;;;21.70;53.70;;;;;;7685685;23;20008;-69
2022/05/15 03:27:13;;;;;;;6.75;3.22;;;21.60;53.70;;;;;;7685699;23;20082;-69
2022/05/15 03:30:15;;;;;;;6.40;3.17;;;21.60;53.90;;;;;;7660120;23;20025;-69
2022/05/15 03:33:16;;;;;;;9.45;3.92;;;21.60;54.00;;;;;;7685363;23;20020;-68
2022/05/15 03:36:17;;;;;;;7.47;3.63;;;21.50;54.00;;;;;;7661228;23;20090;-70
2022/05/15 03:39:22;;;;;;;10.57;3.70;;;21.60;54.20;;;;;;7686122;23;20017;-69
2022/05/15 03:42:24;;;;;;;5.00;2.95;;;21.50;54.20;;;;;;7685734;23;20044;-69
2022/05/15 03:45:26;;;;;;;5.15;2.88;;;21.50;54.30;;;;;;7686029;23;20016;-69
2022/05/15 03:48:27;;;;;;;5.30;3.05;;;21.40;54.40;;;;;;7685761;23;20024;-70
2022/05/15 03:51:28;;;;;;;5.38;3.10;;;21.40;54.40;;;;;;7685891;23;20416;-70
2022/05/15 03:54:29;;;;;;;4.50;3.30;;;21.30;54.50;;;;;;7685663;23;20012;-70
2022/05/15 03:57:30;;;;;;;9.82;3.30;;;21.30;54.70;;;;;;7711830;23;20085;-68
2022/05/15 04:00:31;;;;;;;5.85;3.17;;;21.20;54.60;;;;;;7712144;23;20016;-69
2022/05/15 04:03:33;;;;;;;6.55;3.20;;;21.10;54.70;;;;;;7660467;23;20367;-69
2022/05/15 04:06:34;;;;;;;9.88;3.97;;;21.10;54.70;;;;;;7711833;23;20316;-69
2022/05/15 04:09:38;;;;;;;4.68;2.80;;;21.10;54.70;;;;;;7685862;23;20024;-70
2022/05/15 04:12:39;;;;;;;5.80;3.20;;;21.20;54.80;;;;;;7685979;23;20020;-70
2022/05/15 04:15:41;;;;;;;7.18;3.22;;;21.20;54.80;;;;;;7685758;23;20076;-69
2022/05/15 04:18:43;;;;;;;11.32;3.72;;;21.30;54.80;;;;;;7685506;23;20159;-69
2022/05/15 04:21:44;;;;;;;6.40;3.15;;;21.30;54.90;;;;;;7685148;23;20009;-69
2022/05/15 04:24:45;;;;;;;13.20;3.72;;;21.30;54.90;;;;;;7685928;23;20016;-69
2022/05/15 04:27:46;;;;;;;5.50;3.33;;;21.30;54.90;;;;;;7685313;23;20403;-69
2022/05/15 04:30:47;;;;;;;10.57;3.65;;;21.30;55.00;;;;;;7685567;23;20443;-68
2022/05/15 04:33:48;;;;;;;7.68;3.80;;;21.30;55.00;;;;;;7660490;23;20016;-68
2022/05/15 04:36:48;;;;;;;7.43;3.65;;;21.30;55.00;;;;;;7685894;23;20024;-69
2022/05/15 04:39:50;;;;;;;4.88;3.50;;;21.30;54.90;;;;;;7660945;23;20075;-68
2022/05/15 04:42:51;;;;;;;8.32;3.38;;;21.30;54.90;;;;;;7686342;23;20078;-68
2022/05/15 04:45:52;;;;;;;6.13;3.85;;;21.30;55.00;;;;;;7685281;23;20028;-68
2022/05/15 04:48:53;;;;;;;7.35;3.70;;;21.30;55.00;;;;;;7686055;23;20008;-68
2022/05/15 04:51:54;;;;;;;6.13;3.45;;;21.30;55.00;;;;;;7685438;23;20289;-69
2022/05/15 04:54:55;;;;;;;4.88;2.95;;;21.30;54.90;;;;;;7713449;23;20009;-69
2022/05/15 04:57:56;;;;;;;7.43;3.80;;;21.40;54.90;;;;;;7688178;23;20080;-68
2022/05/15 05:00:57;;;;;;;10.98;3.78;;;21.40;54.90;;;;;;7713814;23;20012;-69
2022/05/15 05:03:58;;;;;;;7.82;3.40;;;21.30;54.80;;;;;;7712651;23;20052;-69
2022/05/15 05:06:59;;;;;;;12.98;3.50;;;21.30;54.80;;;;;;7687312;23;20031;-69
2022/05/15 05:10:01;;;;;;;8.63;3.78;;;21.40;54.80;;;;;;7687569;23;20012;-69
2022/05/15 05:13:02;;;;;;;5.10;3.50;;;21.40;54.90;;;;;;7687370;23;20012;-68
2022/05/15 05:16:03;;;;;;;7.28;3.15;;;21.40;54.70;;;;;;7713276;23;20020;-69
2022/05/15 05:19:04;;;;;;;6.05;3.40;;;21.40;54.60;;;;;;7686327;23;20016;-69
2022/05/15 05:22:05;;;;;;;6.45;3.25;;;21.50;54.60;;;;;;7713344;23;20012;-69
2022/05/15 05:25:08;;;;;;;4.18;3.30;;;21.50;54.60;;;;;;7687086;23;20095;-68
2022/05/15 05:28:09;;;;;;;5.38;3.05;;;21.60;54.60;;;;;;7662021;23;20020;-69
2022/05/15 05:31:11;;;;;;;5.45;3.28;;;21.70;54.40;;;;;;7713716;23;20009;-70
2022/05/15 05:34:12;;;;;;;6.78;3.35;;;21.70;54.10;;;;;;7685931;23;20036;-69
2022/05/15 05:37:15;;;;;;;5.80;3.53;;;21.80;53.80;;;;;;7662245;23;20016;-70
2022/05/15 05:40:15;;;;;;;8.23;4.07;;;21.80;53.60;;;;;;7662264;23;20515;-68
2022/05/15 05:43:17;;;;;;;7.68;4.00;;;21.90;53.40;;;;;;7687513;23;20470;-68
2022/05/15 05:46:18;;;;;;;10.40;3.13;;;22.00;53.30;;;;;;7662251;23;20032;-68
2022/05/15 05:49:19;;;;;;;6.00;3.47;;;22.10;53.10;;;;;;7712553;23;20100;-70
2022/05/15 05:52:20;;;;;;;7.72;3.92;;;22.10;52.90;;;;;;7687166;23;20044;-70
2022/05/15 05:55:22;;;;;;;9.43;3.92;;;22.20;52.80;;;;;;7713708;23;20020;-70
2022/05/15 05:58:23;;;;;;;8.32;4.30;;;22.30;52.60;;;;;;7713571;23;20424;-69
2022/05/15 06:01:24;;;;;;;5.45;3.63;;;22.40;52.40;;;;;;7686267;23;20017;-69
2022/05/15 06:04:41;;;;;;;8.35;3.70;;;22.40;52.20;;;;;;7712485;23;20017;-70
2022/05/15 06:07:43;;;;;;;5.22;3.45;;;22.50;52.10;;;;;;7652685;23;20099;-69
2022/05/15 06:10:44;;;;;;;12.13;3.38;;;22.50;51.80;;;;;;7685937;23;20020;-69
2022/05/15 06:13:46;;;;;;;5.75;3.33;;;22.70;51.60;;;;;;7712631;23;20375;-70
2022/05/15 06:16:47;;;;;;;11.63;3.80;;;22.80;51.30;;;;;;7661480;23;20016;-70
2022/05/15 06:19:48;;;;;;;8.48;3.55;;;22.90;50.90;;;;;;7686288;23;20107;-69
2022/05/15 06:22:49;;;;;;;6.82;3.60;;;23.00;50.70;;;;;;7686891;23;20301;-68
2022/05/15 06:25:50;;;;;;;5.75;3.70;;;23.00;50.60;;;;;;7686725;23;20012;-71
2022/05/15 06:28:51;;;;;;;6.00;3.60;;;23.10;50.40;;;;;;7685913;23;20069;-70
2022/05/15 06:31:54;;;;;;;9.80;3.58;;;23.30;50.20;;;;;;7662004;23;20009;-69
2022/05/15 06:34:55;;;;;;;8.32;4.35;;;23.20;50.10;;;;;;7711374;23;20439;-70
2022/05/15 06:37:56;;;;;;;6.70;4.40;;;23.30;50.20;;;;;;7661523;23;20029;-69
2022/05/15 06:40:57;;;;;;;6.35;3.20;;;23.40;50.10;;;;;;7712553;23;20013;-70
2022/05/15 06:43:58;;;;;;;5.80;4.32;;;23.50;50.00;;;;;;7686248;23;20013;-69
2022/05/15 06:46:59;;;;;;;9.13;3.92;;;23.50;50.00;;;;;;7711693;23;20021;-69
2022/05/15 06:50:00;;;;;;;14.13;4.30;;;23.60;49.90;;;;;;7712141;23;20371;-69
2022/05/15 06:53:02;;;;;;;8.63;4.47;;;23.70;49.90;;;;;;7685663;23;20017;-68
2022/05/15 06:59:22;;;;;;;8.40;3.90;;;23.70;49.60;;;;;;7685630;23;20020;-69
2022/05/15 07:02:26;;;;;;;7.05;4.20;;;23.70;49.80;;;;;;7685324;23;20451;-69
2022/05/15 07:05:30;;;;;;;5.97;3.65;;;23.70;49.80;;;;;;7685960;23;20347;-69
2022/05/15 07:08:31;;;;;;;6.93;3.90;;;23.70;49.80;;;;;;7660743;23;20036;-68
2022/05/15 07:11:32;;;;;;;9.15;4.00;;;23.70;49.80;;;;;;7686222;23;20020;-69
2022/05/15 07:14:34;;;;;;;5.38;3.42;;;23.70;49.80;;;;;;7711996;23;20012;-69
2022/05/15 07:17:35;;;;;;;7.07;3.80;;;23.80;49.90;;;;;;7683179;23;20020;-69
2022/05/15 07:20:36;;;;;;;7.00;4.13;;;23.80;49.90;;;;;;7711856;23;20039;-70
2022/05/15 07:23:37;;;;;;;6.30;3.78;;;23.90;49.80;;;;;;7686048;23;20016;-69
2022/05/15 07:26:44;;;;;;;6.82;4.20;;;24.00;49.60;;;;;;7711787;23;20089;-69
2022/05/15 07:29:45;;;;;;;8.20;3.60;;;24.00;49.40;;;;;;7685686;23;20013;-68
2022/05/15 07:32:46;;;;;;;10.27;3.67;;;24.10;49.30;;;;;;7684955;23;20363;-70
2022/05/15 07:35:48;;;;;;;5.53;4.25;;;24.10;49.10;;;;;;7711888;23;20017;-70
2022/05/15 07:38:49;;;;;;;5.28;3.53;;;24.30;49.00;;;;;;7711588;23;20017;-69
2022/05/15 07:41:51;;;;;;;5.78;3.80;;;24.40;48.80;;;;;;7685458;23;20082;-69
2022/05/15 07:44:54;;;;;;;6.57;4.05;;;24.70;48.50;;;;;;7711865;23;20070;-69
2022/05/15 07:47:54;;;;;;;9.85;3.88;;;24.80;48.10;;;;;;7711799;23;20016;-69
2022/05/15 07:50:56;;;;;;;22.40;3.78;;;25.00;47.80;;;;;;7711759;23;20016;-69
2022/05/15 07:53:56;;;;;;;8.15;4.20;;;25.10;47.40;;;;;;7685732;23;20493;-70
2022/05/15 07:56:57;;;;;;;8.00;4.00;;;25.30;47.20;;;;;;7685833;23;20017;-70
2022/05/15 07:59:58;;;;;;;7.97;4.43;;;25.50;46.90;;;;;;7710891;23;20320;-69
2022/05/15 08:03:08;;;;;;;8.10;4.45;;;25.60;46.60;;;;;;7685969;23;20361;-69
2022/05/15 08:09:30;;;;;;;6.50;3.63;;;25.70;46.30;;;;;;7710699;23;20351;-70
2022/05/15 08:12:31;;;;;;;6.70;3.80;;;25.80;46.10;;;;;;7711499;23;20009;-70
2022/05/15 08:15:33;;;;;;;6.20;3.60;;;25.90;45.90;;;;;;7660186;23;20036;-69
2022/05/15 08:25:15;;;;;;;7.97;4.13;;;26.00;44.90;;;;;;7685313;23;20098;-69
2022/05/15 08:28:16;;;;;;;10.07;3.92;;;26.00;45.10;;;;;;7686854;23;20020;-70
2022/05/15 08:31:18;;;;;;;5.90;4.07;;;25.90;45.00;;;;;;7688056;23;20067;-70
2022/05/15 08:34:18;;;;;;;7.25;4.00;;;26.00;45.00;;;;;;7688028;23;20078;-70
2022/05/15 08:37:19;;;;;;;6.95;3.78;;;26.20;44.90;;;;;;7687942;23;20024;-70
2022/05/15 08:40:30;;;;;;;7.50;4.35;;;26.30;44.60;;;;;;7661613;23;20020;-70
2022/05/15 08:43:45;;;;;;;6.47;3.55;;;26.50;44.40;;;;;;7713859;23;20375;-70
2022/05/15 08:46:49;;;;;;;8.98;4.03;;;26.60;44.10;;;;;;7713146;23;20021;-70
2022/05/15 08:49:52;;;;;;;9.40;3.78;;;26.80;43.80;;;;;;7713674;23;20013;-69
2022/05/15 08:53:04;;;;;;;10.57;4.30;;;26.90;43.50;;;;;;7711278;23;20021;-69
2022/05/15 08:56:09;;;;;;;7.85;4.13;;;27.10;43.20;;;;;;7686903;23;20013;-69
2022/05/15 08:59:24;;;;;;;6.95;4.00;;;27.10;43.10;;;;;;7686712;23;20084;-69
2022/05/15 09:02:25;;;;;;;5.82;3.75;;;27.20;42.90;;;;;;7686836;23;20013;-69
2022/05/15 09:05:29;;;;;;;6.25;4.25;;;27.20;42.70;;;;;;7687168;23;20016;-69
2022/05/15 09:08:58;;;;;;;15.10;3.47;;;27.30;42.40;;;;;;7687023;23;20035;-69
2022/05/15 09:12:16;;;;;;;5.40;3.78;;;27.40;42.10;;;;;;7710801;23;20023;-69
2022/05/15 09:15:20;;;;;;;8.18;4.15;;;27.50;41.90;;;;;;7710874;23;20020;-70
2022/05/15 09:18:21;;;;;;;5.15;3.78;;;27.60;41.60;;;;;;7660096;23;20048;-69
2022/05/15 09:21:22;;;;;;;5.35;3.53;;;27.70;41.40;;;;;;7685800;23;20048;-69
2022/05/15 09:24:45;;;;;;;4.43;3.42;;;27.80;41.20;;;;;;7711740;23;20428;-69
2022/05/15 09:28:06;;;;;;;5.20;3.50;;;27.90;40.90;;;;;;7684830;23;20074;-69
2022/05/15 09:31:21;;;;;;;10.55;3.45;;;27.90;41.00;;;;;;7709523;23;20058;-69
2022/05/15 09:34:29;;;;;;;5.38;3.45;;;27.90;40.90;;;;;;7660021;23;20292;-69
2022/05/15 09:45:05;;;;;;;6.35;3.75;;;27.90;41.10;;;;;;7470166;23;20046;-69
2022/05/15 09:48:12;;;;;;;10.68;4.28;;;27.90;41.10;;;;;;7494269;23;20041;-70
2022/05/15 09:51:13;;;;;;;5.95;3.70;;;27.90;41.20;;;;;;7494863;23;20444;-69
2022/05/15 09:54:33;;;;;;;9.15;3.88;;;28.00;41.20;;;;;;7494563;23;20040;-69
2022/05/15 09:57:35;;;;;;;4.75;3.65;;;28.00;41.10;;;;;;7495193;23;20023;-69
2022/05/15 10:00:38;;;;;;;8.23;3.45;;;28.10;41.00;;;;;;7495195;23;20102;-70
2022/05/15 10:03:39;;;;;;;6.35;3.70;;;28.10;41.00;;;;;;7470558;23;20055;-70
2022/05/15 10:06:51;;;;;;;5.63;3.67;;;28.20;40.80;;;;;;7494747;23;20355;-71
2022/05/15 10:09:51;;;;;;;9.32;3.65;;;28.20;40.70;;;;;;7469470;23;20391;-70
2022/05/15 10:12:59;;;;;;;6.88;3.15;;;28.20;40.60;;;;;;7493044;23;20015;-69
2022/05/15 10:16:20;;;;;;;4.90;3.20;;;28.20;40.60;;;;;;7670072;23;20008;-70
2022/05/15 10:19:32;;;;;;;3.90;3.33;;;28.30;40.60;;;;;;7661978;23;20028;-69
2022/05/15 10:22:58;;;;;;;7.18;3.55;;;28.40;40.50;;;;;;7687820;23;20004;-70
2022/05/15 10:26:08;;;;;;;6.95;3.78;;;28.50;40.40;;;;;;7663835;23;20086;-70
2022/05/15 10:29:36;;;;;;;6.80;3.17;;;28.60;40.40;;;;;;7686991;23;20424;-70
2022/05/15 10:33:02;;;;;;;4.60;3.10;;;28.60;40.30;;;;;;7687798;23;20432;-70
2022/05/15 10:36:20;;;;;;;7.18;2.97;;;28.70;40.00;;;;;;7688463;23;20031;-69
2022/05/15 10:39:47;;;;;;;2.58;2.35;;;28.80;39.60;;;;;;7687468;23;20012;-70
2022/05/15 10:43:26;;;;;;;3.67;2.45;;;29.00;39.10;;;;;;7688022;23;20300;-69
2022/05/15 10:46:46;;;;;;;8.00;2.40;;;29.10;38.20;;;;;;7712709;23;20012;-70
2022/05/15 10:50:12;;;;;;;4.13;2.50;;;29.20;37.70;;;;;;7685829;23;20063;-69
2022/05/15 10:57:24;;;;;;;4.03;2.80;;;29.90;36.70;;;;;;7682847;23;20009;-70
2022/05/15 11:00:48;;;;;;;6.93;2.90;;;30.90;35.10;;;;;;7707031;23;20008;-70
2022/05/15 11:04:14;;;;;;;6.10;2.97;;;31.90;33.80;;;;;;7680762;23;20377;-71
2022/05/15 11:07:24;;;;;;;9.85;3.30;;;32.60;32.90;;;;;;7681968;23;20091;-69
2022/05/15 11:10:52;;;;;;;9.40;3.40;;;33.30;32.20;;;;;;7657945;23;20074;-70
2022/05/15 11:14:03;;;;;;;3.93;2.80;;;33.90;31.30;;;;;;7682111;23;20012;-71
2022/05/15 11:17:04;;;;;;;4.07;2.47;;;34.30;30.60;;;;;;7707928;23;21241;-71
2022/05/15 11:20:15;;;;;;;6.93;3.22;;;34.70;30.00;;;;;;7657651;23;20012;-69
2022/05/15 11:23:25;;;;;;;6.35;2.85;;;35.10;29.60;;;;;;7682853;23;20016;-69
2022/05/15 11:26:32;;;;;;;4.60;2.67;;;35.30;29.10;;;;;;7683886;23;20012;-69
2022/05/15 11:29:41;;;;;;;7.60;3.03;;;35.40;29.20;;;;;;7710001;23;20040;-69
2022/05/15 11:32:45;;;;;;;5.65;2.97;;;35.30;29.20;;;;;;7710012;23;20036;-70
2022/05/15 11:36:29;;;;;;;6.43;3.17;;;35.20;29.20;;;;;;7710413;23;20020;-70
2022/05/15 11:39:30;;;;;;;7.60;3.53;;;35.00;29.20;;;;;;7488372;23;20027;-70
2022/05/15 11:42:31;;;;;;;8.27;3.42;;;34.90;29.30;;;;;;7489557;23;20042;-71
2022/05/15 11:45:35;;;;;;;5.97;3.92;;;34.80;29.40;;;;;;7465648;23;20045;-70
2022/05/15 11:48:38;;;;;;;14.82;4.20;;;34.60;29.70;;;;;;7488338;23;20019;-70
2022/05/15 11:51:40;;;;;;;8.05;3.70;;;34.60;30.00;;;;;;7466012;23;20015;-70
2022/05/15 11:54:53;;;;;;;6.95;3.60;;;34.40;30.20;;;;;;7489936;23;20058;-70
2022/05/15 11:58:07;;;;;;;11.65;4.05;;;34.30;30.60;;;;;;7474988;23;20030;-70
2022/05/15 12:01:35;;;;;;;7.13;3.95;;;34.30;30.70;;;;;;7487605;23;20132;-71
2022/05/15 12:04:36;;;;;;;7.97;3.33;;;34.40;30.80;;;;;;7490749;23;20106;-70
2022/05/15 12:07:50;;;;;;;7.30;3.80;;;34.60;30.60;;;;;;7489748;23;20071;-71
2022/05/15 12:10:57;;;;;;;6.25;3.70;;;34.60;30.70;;;;;;7492048;23;20019;-71
2022/05/15 12:14:19;;;;;;;6.07;3.60;;;34.80;30.60;;;;;;7501269;23;20026;-70
2022/05/15 12:17:32;;;;;;;6.65;3.60;;;35.00;30.30;;;;;;7711225;23;20028;-69
2022/05/15 12:20:37;;;;;;;8.13;4.50;;;35.20;30.30;;;;;;7661024;23;20072;-69
2022/05/15 12:24:27;;;;;;;6.78;3.42;;;35.40;30.10;;;;;;7686031;23;20265;-69
2022/05/15 12:27:19;;;;;;;8.95;4.20;;;35.70;29.90;;;;;;7685636;23;20021;-70
2022/05/15 12:30:22;;;;;;;9.77;3.97;;;35.90;29.80;;;;;;7686568;23;20092;-70
2022/05/15 12:33:28;;;;;;;9.15;4.07;;;36.20;29.50;;;;;;7676892;23;20020;-70
2022/05/15 12:36:31;;;;;;;9.43;4.20;;;36.70;29.30;;;;;;7712026;23;20087;-70
2022/05/15 12:39:41;;;;;;;6.53;3.85;;;37.20;28.80;;;;;;7714248;23;20024;-70
2022/05/15 12:42:42;;;;;;;8.45;4.18;;;37.50;28.40;;;;;;7713574;23;20015;-70
2022/05/15 12:45:43;;;;;;;7.32;4.05;;;37.90;28.10;;;;;;7687443;23;20044;-70
2022/05/15 12:48:44;;;;;;;8.95;4.15;;;38.20;27.60;;;;;;7687771;23;20028;-71
2022/05/15 12:51:45;;;;;;;12.88;4.60;;;38.40;27.30;;;;;;7687196;23;20040;-70
2022/05/15 12:54:56;;;;;;;6.68;4.50;;;38.90;27.10;;;;;;7713524;23;20013;-70
2022/05/15 12:57:58;;;;;;;8.35;4.10;;;39.20;26.50;;;;;;7663083;23;20423;-70
2022/05/15 13:01:00;;;;;;;8.25;3.70;;;39.30;26.30;;;;;;7714079;23;20025;-71
2022/05/15 13:04:04;;;;;;;9.05;3.83;;;39.50;26.30;;;;;;7687425;23;20047;-70
2022/05/15 13:07:07;;;;;;;10.10;4.53;;;39.90;26.00;;;;;;7687216;23;20017;-70
2022/05/15 13:10:12;;;;;;;6.20;3.70;;;40.40;25.40;;;;;;7662459;23;20104;-70
2022/05/15 13:13:27;;;;;;;7.57;3.95;;;40.80;25.00;;;;;;7712782;23;20047;-70
2022/05/15 13:16:29;;;;;;;8.23;4.35;;;41.30;24.70;;;;;;7686866;23;20009;-70
2022/05/15 13:19:48;;;;;;;6.70;3.55;;;41.90;24.20;;;;;;7713184;23;20343;-71
2022/05/15 13:22:50;;;;;;;7.95;3.88;;;42.50;23.70;;;;;;7712620;23;20299;-70
2022/05/15 13:25:54;;;;;;;6.25;4.07;;;43.10;23.10;;;;;;7712852;23;20008;-71
2022/05/15 13:29:00;;;;;;;6.47;3.80;;;43.20;22.90;;;;;;7686917;23;20021;-69
2022/05/15 13:32:02;;;;;;;8.03;4.17;;;43.10;22.90;;;;;;7713191;23;20021;-71
2022/05/15 13:35:12;;;;;;;10.00;3.80;;;43.20;22.90;;;;;;7713181;23;20042;-69
2022/05/15 13:38:20;;;;;;;7.97;4.20;;;43.30;22.70;;;;;;7686752;23;20424;-71
2022/05/15 13:44:43;;;;;;;8.63;3.90;;;43.60;22.40;;;;;;7712858;23;20114;-71
2022/05/15 13:48:06;;;;;;;7.72;3.83;;;44.00;22.30;;;;;;7687216;23;20021;-70
2022/05/15 13:51:07;;;;;;;9.52;3.83;;;44.20;22.10;;;;;;7686587;23;20017;-71
2022/05/15 13:54:11;;;;;;;7.35;3.85;;;44.30;22.10;;;;;;7712426;23;20023;-70
2022/05/15 13:57:12;;;;;;;4.57;3.58;;;44.10;22.20;;;;;;7662219;23;20024;-70
2022/05/15 14:00:14;;;;;;;6.78;3.55;;;44.20;22.10;;;;;;7713280;23;20024;-70
2022/05/15 14:03:29;;;;;;;9.30;4.03;;;44.30;21.90;;;;;;7713096;23;20096;-70
2022/05/15 14:06:43;;;;;;;9.23;3.63;;;43.30;22.20;;;;;;7710725;23;20044;-70
2022/05/15 14:09:53;;;;;;;13.35;4.68;;;42.20;23.00;;;;;;7682837;23;20285;-69
2022/05/15 14:12:53;;;;;;;9.68;4.63;;;41.90;23.50;;;;;;7710304;23;20091;-69
2022/05/15 14:15:55;;;;;;;9.52;4.22;;;41.20;24.20;;;;;;7683196;23;20242;-69
2022/05/15 14:18:56;;;;;;;7.90;3.72;;;39.80;25.50;;;;;;7684739;23;20316;-69
2022/05/15 14:21:59;;;;;;;9.68;4.55;;;38.30;26.80;;;;;;7709710;23;20028;-70
2022/05/15 14:25:00;;;;;;;13.77;5.28;;;37.00;28.10;;;;;;7710535;23;20012;-70
2022/05/15 14:28:02;;;;;;;8.05;4.28;;;35.70;30.30;;;;;;7684322;23;20067;-69
2022/05/15 14:31:03;;;;;;;11.68;4.10;;;34.50;32.50;;;;;;7710796;23;20044;-70
2022/05/15 14:34:04;;;;;;;9.73;3.78;;;33.40;33.50;;;;;;7684216;23;20132;-70
2022/05/15 14:37:05;;;;;;;9.75;4.05;;;32.50;34.30;;;;;;7684335;23;20013;-70
2022/05/15 14:40:07;;;;;;;7.88;4.60;;;31.90;35.50;;;;;;7670441;23;20051;-70
2022/05/15 14:43:07;;;;;;;11.07;4.53;;;31.40;36.90;;;;;;7711408;23;20082;-69
2022/05/15 14:46:14;;;;;;;19.27;5.20;;;31.00;38.00;;;;;;7684000;23;20021;-70
2022/05/15 14:49:16;;;;;;;11.73;4.57;;;30.60;39.00;;;;;;7710881;23;20084;-70
2022/05/15 14:52:23;;;;;;;10.85;4.30;;;30.30;39.60;;;;;;7710444;23;20035;-69
2022/05/15 14:59:02;;;;;;;22.40;5.50;;;29.90;40.30;;;;;;7684060;23;20009;-69
2022/05/15 15:02:03;;;;;;;17.85;4.95;;;29.80;41.00;;;;;;7709971;23;20020;-69
2022/05/15 15:05:04;;;;;;;16.10;5.22;;;29.60;41.60;;;;;;7684215;23;20013;-69
2022/05/15 15:08:05;;;;;;;8.60;4.32;;;29.40;42.00;;;;;;7684058;23;20036;-69
2022/05/15 15:11:14;;;;;;;11.10;4.95;;;29.10;43.00;;;;;;7710152;23;20012;-68
2022/05/15 15:14:18;;;;;;;16.25;5.53;;;28.90;44.40;;;;;;7683750;23;20032;-69
2022/05/15 15:17:19;;;;;;;15.25;4.55;;;28.80;44.80;;;;;;7684064;23;20043;-69
2022/05/15 15:20:20;;;;;;;8.13;4.38;;;28.70;45.10;;;;;;7710574;23;20016;-70
2022/05/15 15:23:21;;;;;;;10.73;3.80;;;28.50;44.90;;;;;;7683910;23;20016;-69
2022/05/15 15:26:22;;;;;;;6.00;3.55;;;28.40;44.50;;;;;;7683316;23;20020;-69
2022/05/15 15:29:23;;;;;;;7.22;3.45;;;28.30;44.00;;;;;;7684185;23;20102;-69
2022/05/15 15:32:24;;;;;;;7.93;3.50;;;28.40;43.40;;;;;;7681812;23;20389;-69
2022/05/15 15:35:27;;;;;;;5.07;3.25;;;28.40;42.40;;;;;;7683593;23;20012;-69
2022/05/15 15:38:27;;;;;;;6.80;3.50;;;28.40;41.60;;;;;;7683159;23;20016;-69
2022/05/15 15:41:28;;;;;;;8.98;3.83;;;28.50;41.40;;;;;;7710079;23;20389;-69
2022/05/15 15:44:29;;;;;;;9.65;3.30;;;28.40;41.40;;;;;;7683124;23;20016;-69
2022/05/15 15:47:30;;;;;;;6.68;3.58;;;28.40;41.60;;;;;;7683165;23;20124;-69
2022/05/15 15:50:31;;;;;;;11.00;3.55;;;28.30;41.60;;;;;;7684014;23;20021;-70
2022/05/15 15:53:32;;;;;;;9.32;3.17;;;28.30;42.00;;;;;;7682988;23;20426;-70
2022/05/15 15:56:37;;;;;;;11.13;3.80;;;28.20;42.10;;;;;;7659445;23;20028;-69
2022/05/15 15:59:38;;;;;;;10.73;3.42;;;28.20;42.30;;;;;;7709601;23;20400;-69
2022/05/15 16:02:43;;;;;;;9.38;3.63;;;28.20;42.30;;;;;;7683191;23;20032;-69
2022/05/15 16:05:46;;;;;;;7.45;3.58;;;28.30;42.10;;;;;;7684281;23;20013;-69
2022/05/15 16:08:48;;;;;;;8.40;3.30;;;28.50;41.80;;;;;;7683021;23;20051;-69
2022/05/15 16:11:49;;;;;;;5.43;3.17;;;28.60;42.00;;;;;;7684190;23;20043;-69
2022/05/15 16:14:50;;;;;;;4.65;3.33;;;28.50;42.20;;;;;;7710567;23;20378;-70
2022/05/15 16:17:55;;;;;;;4.88;3.45;;;28.50;42.40;;;;;;7709197;23;20047;-70
2022/05/15 16:21:15;;;;;;;5.28;3.30;;;28.40;42.30;;;;;;7683612;23;20035;-69
2022/05/15 16:24:20;;;;;;;16.27;4.20;;;28.40;42.50;;;;;;7709344;23;20086;-68
2022/05/15 16:27:21;;;;;;;6.03;3.80;;;28.30;42.80;;;;;;7683835;23;20044;-69
2022/05/15 16:30:23;;;;;;;12.10;3.60;;;28.30;43.70;;;;;;7684199;23;20083;-69
2022/05/15 16:33:25;;;;;;;8.85;4.10;;;28.20;44.40;;;;;;7682665;23;20039;-69